Zahedan, Zahedan Airport (OIZH)

NameZahedan Airport
CityZahedan
CountryIran (Islamic Republic of)
ICAOOIZH
IATAZAH
Altitude1391 m
CoordinatesGoogle Map
Live Air TrafficLiveATC.net
METAROIZH 222200Z 02006KT CAVOK 31/04 Q1008 A2978
2019-07-22 22:00:00 Wind: North (20°) 3.09 m/s - Visibility: > 10000 m - Weather: CAVOK - Temperature: 31 °C - Dew point: 4 °C - Humidity: 18% - Pressure: 1008.47 hPa

Sorry, no flights used the airport in this database.